Aérodrome :







RETROUVEZ-NOUS SUR...

 
LOGIN :

S'inscrire | Disclaimer

   EN    FR    IT 

 









Légende :    VFR   VFR Marginal   IFR   IFR Intensif   IFR Très Intensif
Visi : 
Plafond : 
>= 8 km
>= 3000ft
5 à 8 km
1000 à 3000 ft
1500m à 5 km
500 à 1000 ft
800 à 1500m
200 à 500 ft
< 800m
< 200 ft
Symboles :   Orages  Brouillard  Fortes neiges  Fortes précipitations  Vent > 20 kt






- Altitude de l'aérodrome : 119 ft
- Code IATA : YPJ


CYLA - Aupaluk

DERNIER METAR :
  • 171700Z 19011KT 15SM FEW041 FEW250 M10/M13 A2976 RMK SC1CI1 SC TR SLP082

METARs EXPIRÉS :
  • 171600Z 19013KT 15SM FEW040 FEW060 FEW250 M10/M13 A2978 RMK SC1SC1CI1 SC TR CI TR SLP091
  • 171500Z 20011KT 15SM FEW010 FEW030 BKN063 BKN250 M10/M12 A2981 RMK SF1SC1SC6CI1 SF TR SC TR CI TR SLP099

TAF N/A



MET'MAP, la Météo Aéronautique d'un coup d'oeil ! - Copyright ORBIFLY Décembre 2007 - Disclaimer

ORBIFLY MET'MAP TEAM :

Programmation & Développement : Alexandra Zaïnal
Conception & Développement : Baudouin d'Aumeries
Co-Programmation & Développement : Marc-Olivier Méhu
Soutien technique & logistique : Manuel Goepfert

Contact : metmap@orbifly.com




SOURCES & CREDITS :

   NOAA